Time;durP1;ratioP1;P1;durP2;ratioP2;P2;SDS_P1;SDS_P2;PMS_P1;PMS_P2;Temp;Humidity;BMP_temperature;BMP_pressure;BME280_temperature;BME280_humidity;BME280_pressure;Samples;Min_cycle;Max_cycle;Signal;HPM_P1;HPM_P2
2022/05/22 00:00:20;;;;;;;0.90;0.30;;;18.40;57.00;;;;;;5129710;27;20035;-73
2022/05/22 00:02:46;;;;;;;1.02;0.30;;;18.40;57.80;;;;;;5128854;27;20430;-67
2022/05/22 00:05:16;;;;;;;1.25;0.40;;;18.40;57.00;;;;;;5128520;28;20043;-73
2022/05/22 00:07:42;;;;;;;;;;;18.50;57.10;;;;;;5128303;28;20039;-71
2022/05/22 00:10:08;;;;;;;1.02;0.20;;;18.40;57.10;;;;;;5127943;28;19916;-71
2022/05/22 00:12:34;;;;;;;2.00;0.47;;;18.40;57.10;;;;;;5128052;28;20047;-71
2022/05/22 00:15:00;;;;;;;1.25;0.20;;;18.40;57.10;;;;;;5128040;28;20723;-71
2022/05/22 00:17:26;;;;;;;0.98;0.40;;;18.40;57.10;;;;;;5129347;27;20043;-72
2022/05/22 00:19:52;;;;;;;1.58;0.30;;;18.40;57.10;;;;;;5127562;28;20092;-71
2022/05/22 00:22:17;;;;;;;2.17;0.20;;;18.40;57.10;;;;;;5127153;28;20077;-73
2022/05/22 00:24:43;;;;;;;0.73;0.32;;;18.40;57.10;;;;;;5127757;28;20044;-68
2022/05/22 00:27:09;;;;;;;0.45;0.10;;;18.40;57.10;;;;;;5127285;28;20038;-68
2022/05/22 00:29:36;;;;;;;0.50;0.20;;;18.40;57.00;;;;;;5127403;28;20047;-71
2022/05/22 00:32:03;;;;;;;1.58;0.43;;;18.40;57.10;;;;;;5127594;28;20043;-67
2022/05/22 00:34:31;;;;;;;1.38;0.20;;;18.40;57.10;;;;;;5115695;28;20040;-71
2022/05/22 00:36:57;;;;;;;0.85;0.22;;;18.40;57.00;;;;;;5113722;28;20560;-71
2022/05/22 00:39:23;;;;;;;0.70;0.35;;;18.30;57.00;;;;;;5113362;28;20055;-71
2022/05/22 00:41:51;;;;;;;0.85;0.20;;;18.30;57.00;;;;;;5113356;28;20043;-73
2022/05/22 00:44:18;;;;;;;1.35;0.30;;;18.30;57.00;;;;;;5115094;28;20039;-71
2022/05/22 00:46:44;;;;;;;0.60;0.20;;;18.30;57.00;;;;;;5113582;28;20032;-71
2022/05/22 00:49:16;;;;;;;0.95;0.30;;;18.30;57.00;;;;;;5114528;28;20039;-67
2022/05/22 00:51:48;;;;;;;1.15;0.20;;;18.30;57.00;;;;;;5114654;28;20157;-71
2022/05/22 00:54:24;;;;;;;0.90;0.30;;;18.30;57.00;;;;;;5113744;28;20054;-67
2022/05/22 00:57:06;;;;;;;2.05;0.20;;;18.30;57.00;;;;;;5114713;28;20039;-71
2022/05/22 00:59:38;;;;;;;1.00;0.38;;;18.30;57.00;;;;;;5114468;28;20035;-72
2022/05/22 01:02:05;;;;;;;1.77;0.40;;;18.30;57.00;;;;;;5113014;28;20120;-71
2022/05/22 01:04:36;;;;;;;1.17;0.40;;;18.30;57.00;;;;;;5114819;28;20038;-71
2022/05/22 01:07:06;;;;;;;1.23;0.22;;;18.20;56.90;;;;;;5112869;28;20081;-72
2022/05/22 01:09:34;;;;;;;1.55;0.35;;;18.20;56.90;;;;;;5095939;28;20027;-73
2022/05/22 01:12:06;;;;;;;1.70;0.20;;;18.20;56.90;;;;;;5113249;28;20055;-71
2022/05/22 01:14:34;;;;;;;0.73;0.25;;;18.20;57.00;;;;;;5114659;28;20343;-71
2022/05/22 01:17:03;;;;;;;0.88;0.40;;;18.20;56.90;;;;;;5094851;28;20043;-71
2022/05/22 01:19:32;;;;;;;1.05;0.30;;;18.20;56.90;;;;;;5092233;28;20040;-68
2022/05/22 01:22:13;;;;;;;0.70;0.20;;;18.20;57.00;;;;;;5093297;28;20056;-71
2022/05/22 01:24:40;;;;;;;0.73;0.28;;;18.20;57.70;;;;;;5093833;28;20436;-71
2022/05/22 01:27:10;;;;;;;0.77;0.20;;;18.10;56.90;;;;;;5092113;28;20046;-69
2022/05/22 01:29:36;;;;;;;;;;;18.10;56.90;;;;;;5092835;28;20047;-68
2022/05/22 01:32:03;;;;;;;1.42;0.30;;;18.10;56.90;;;;;;5092121;28;20351;-71
2022/05/22 01:34:28;;;;;;;0.57;0.20;;;18.10;56.90;;;;;;5092710;28;20036;-71
2022/05/22 01:36:54;;;;;;;0.70;0.20;;;18.10;56.90;;;;;;5093282;28;20521;-70
2022/05/22 01:39:19;;;;;;;1.23;0.30;;;18.10;56.90;;;;;;5092167;28;20040;-73
2022/05/22 01:41:45;;;;;;;0.60;0.20;;;18.10;56.90;;;;;;5093049;28;20040;-71
2022/05/22 01:44:14;;;;;;;0.68;0.30;;;18.10;56.90;;;;;;5093343;28;20498;-67
2022/05/22 01:46:40;;;;;;;0.80;0.20;;;18.10;56.90;;;;;;5091189;28;20065;-71
2022/05/22 01:49:07;;;;;;;1.52;0.38;;;18.10;56.90;;;;;;5091464;28;20040;-72
2022/05/22 01:51:36;;;;;;;1.75;0.50;;;18.00;56.90;;;;;;5091981;28;20040;-72
2022/05/22 01:54:03;;;;;;;0.90;0.20;;;18.00;56.90;;;;;;5092154;28;20127;-67
2022/05/22 01:56:30;;;;;;;0.60;0.28;;;18.00;56.90;;;;;;5091659;28;20043;-73
2022/05/22 01:58:55;;;;;;;0.93;0.30;;;18.00;56.80;;;;;;5092207;28;20082;-72
2022/05/22 02:01:21;;;;;;;2.50;0.32;;;18.00;56.80;;;;;;5091396;28;20484;-72
2022/05/22 02:03:47;;;;;;;0.68;0.40;;;18.00;56.80;;;;;;5091623;28;20061;-71
2022/05/22 02:06:12;;;;;;;0.30;0.20;;;18.00;56.80;;;;;;5091761;28;20127;-73
2022/05/22 02:08:38;;;;;;;0.57;0.20;;;18.00;56.80;;;;;;5090474;28;20522;-72
2022/05/22 02:11:06;;;;;;;0.88;0.30;;;18.00;56.80;;;;;;5092684;28;20032;-71
2022/05/22 02:13:38;;;;;;;1.40;0.20;;;18.00;56.80;;;;;;5074723;28;20281;-72
2022/05/22 02:16:04;;;;;;;0.98;0.30;;;17.90;56.70;;;;;;5091460;28;20114;-72
2022/05/22 02:18:30;;;;;;;0.85;0.20;;;18.00;56.70;;;;;;5091487;28;20036;-71
2022/05/22 02:20:56;;;;;;;0.47;0.30;;;17.90;56.70;;;;;;5092585;28;20044;-73
2022/05/22 02:23:21;;;;;;;0.85;0.30;;;17.90;56.70;;;;;;5090899;28;20052;-71
2022/05/22 02:25:50;;;;;;;0.77;0.45;;;17.90;56.70;;;;;;5091273;28;20540;-74
2022/05/22 02:28:17;;;;;;;0.68;0.20;;;17.90;56.70;;;;;;5091054;28;20048;-71
2022/05/22 02:30:46;;;;;;;0.63;0.20;;;17.80;56.60;;;;;;5091511;28;20032;-71
2022/05/22 02:33:12;;;;;;;0.85;0.30;;;17.90;56.70;;;;;;5092286;28;20040;-71
2022/05/22 02:35:38;;;;;;;0.55;0.20;;;17.90;56.70;;;;;;5091480;28;20386;-72
2022/05/22 02:38:04;;;;;;;1.13;0.38;;;17.80;56.60;;;;;;5092318;28;20044;-71
2022/05/22 02:40:34;;;;;;;1.08;0.20;;;17.90;56.70;;;;;;5092076;28;20479;-71
2022/05/22 02:43:00;;;;;;;0.52;0.20;;;17.80;56.60;;;;;;5090884;28;20475;-72
2022/05/22 02:45:30;;;;;;;0.60;0.28;;;17.80;56.70;;;;;;5091385;28;20051;-71
2022/05/22 02:47:56;;;;;;;0.57;0.20;;;17.80;56.60;;;;;;5090453;28;20123;-71
2022/05/22 02:50:24;;;;;;;0.45;0.20;;;17.80;56.60;;;;;;5090523;28;20119;-72
2022/05/22 02:52:50;;;;;;;1.17;0.20;;;17.80;56.60;;;;;;5090561;28;20059;-72
2022/05/22 02:55:18;;;;;;;0.80;0.20;;;17.80;56.60;;;;;;5092480;28;20044;-72
2022/05/22 02:57:44;;;;;;;0.52;0.20;;;17.80;56.60;;;;;;5090608;28;20040;-72
2022/05/22 03:00:15;;;;;;;1.25;0.20;;;17.80;56.60;;;;;;5090598;28;20051;-71
2022/05/22 03:02:40;;;;;;;0.40;0.20;;;17.80;56.60;;;;;;5090573;28;20428;-71
2022/05/22 03:05:06;;;;;;;1.35;0.20;;;17.70;56.50;;;;;;5092120;28;20036;-72
2022/05/22 03:07:36;;;;;;;0.40;0.20;;;17.80;56.60;;;;;;5090271;28;20445;-71
2022/05/22 03:10:04;;;;;;;1.03;0.20;;;17.70;56.50;;;;;;5092027;28;20044;-72
2022/05/22 03:12:29;;;;;;;0.85;0.30;;;17.70;56.50;;;;;;5090506;28;20043;-70
2022/05/22 03:14:57;;;;;;;0.38;0.35;;;17.70;56.60;;;;;;5089953;28;20063;-72
2022/05/22 03:17:24;;;;;;;0.75;0.30;;;17.70;56.60;;;;;;5090326;28;20044;-70
2022/05/22 03:19:50;;;;;;;0.55;0.20;;;17.70;56.50;;;;;;5091530;28;20400;-66
2022/05/22 03:22:16;;;;;;;0.50;0.30;;;17.70;56.50;;;;;;5091135;28;20083;-73
2022/05/22 03:24:42;;;;;;;0.32;0.20;;;17.70;56.50;;;;;;5090748;28;20487;-71
2022/05/22 03:27:12;;;;;;;0.45;0.10;;;17.60;56.50;;;;;;5090607;28;20040;-70
2022/05/22 03:29:39;;;;;;;0.40;0.20;;;17.70;56.50;;;;;;5090361;28;20044;-71
2022/05/22 03:32:05;;;;;;;0.47;0.20;;;17.70;56.60;;;;;;5090551;28;20051;-72
2022/05/22 03:34:31;;;;;;;0.70;0.20;;;17.60;56.50;;;;;;5091558;28;20040;-70
2022/05/22 03:36:57;;;;;;;0.30;0.20;;;17.60;56.50;;;;;;5091786;28;20032;-71
2022/05/22 03:39:23;;;;;;;0.80;0.20;;;17.60;56.50;;;;;;5090587;28;20142;-70
2022/05/22 03:41:51;;;;;;;1.40;0.30;;;17.60;56.50;;;;;;5090000;28;20073;-72
2022/05/22 03:44:20;;;;;;;0.88;0.20;;;17.70;56.50;;;;;;5090434;28;20043;-72
2022/05/22 03:46:46;;;;;;;0.40;0.20;;;17.60;56.50;;;;;;5090206;28;20052;-70
2022/05/22 03:49:12;;;;;;;1.15;0.20;;;17.60;56.50;;;;;;5089838;28;20161;-71
2022/05/22 03:51:39;;;;;;;0.95;0.30;;;17.60;56.50;;;;;;5090172;28;20036;-71
2022/05/22 03:54:05;;;;;;;0.88;0.38;;;17.60;56.50;;;;;;5091387;28;20047;-72
2022/05/22 03:56:31;;;;;;;0.50;0.20;;;17.60;56.50;;;;;;5090038;28;20044;-71
2022/05/22 03:58:56;;;;;;;1.10;0.28;;;17.50;56.40;;;;;;5091944;28;20062;-67
2022/05/22 04:01:22;;;;;;;0.77;0.20;;;17.60;56.40;;;;;;5090029;28;20036;-70
2022/05/22 04:03:48;;;;;;;1.48;0.30;;;17.60;56.40;;;;;;5091203;28;20504;-70
2022/05/22 04:06:13;;;;;;;0.47;0.20;;;17.60;56.40;;;;;;5090113;28;20557;-72
2022/05/22 04:08:40;;;;;;;0.57;0.20;;;17.50;56.40;;;;;;5091142;28;20053;-73
2022/05/22 04:11:09;;;;;;;1.13;0.40;;;17.50;56.40;;;;;;5095044;28;20040;-70
2022/05/22 04:13:35;;;;;;;0.80;0.20;;;17.50;56.40;;;;;;5093967;28;20040;-70
2022/05/22 04:16:01;;;;;;;0.38;0.20;;;17.50;56.40;;;;;;5093828;28;20118;-72
2022/05/22 04:18:27;;;;;;;0.35;0.20;;;17.40;56.40;;;;;;5093793;28;20080;-72
2022/05/22 04:20:52;;;;;;;0.45;0.25;;;17.50;56.40;;;;;;5094651;28;20491;-72
2022/05/22 04:26:04;;;;;;;0.40;0.20;;;17.50;56.40;;;;;;5093862;28;20483;-72
2022/05/22 04:28:31;;;;;;;0.70;0.20;;;17.50;56.40;;;;;;5093190;28;20123;-72
2022/05/22 04:30:57;;;;;;;0.70;0.20;;;17.50;56.40;;;;;;5093322;28;20064;-72
2022/05/22 04:33:24;;;;;;;0.55;0.20;;;17.50;56.40;;;;;;5093509;28;20036;-72
2022/05/22 04:35:51;;;;;;;0.40;0.10;;;17.50;56.40;;;;;;5094833;28;20040;-70
2022/05/22 04:38:17;;;;;;;0.40;0.20;;;17.50;56.30;;;;;;5093763;28;20094;-70
2022/05/22 04:41:01;;;;;;;2.55;0.55;;;17.50;56.30;;;;;;5093117;28;20059;-72
2022/05/22 04:43:28;;;;;;;0.75;0.20;;;17.50;56.30;;;;;;5093026;28;20318;-72
2022/05/22 04:45:55;;;;;;;0.60;0.20;;;17.50;56.30;;;;;;5094656;28;20040;-70
2022/05/22 04:48:22;;;;;;;0.85;0.20;;;17.50;56.20;;;;;;5094153;28;20413;-67
2022/05/22 04:50:49;;;;;;;0.40;0.25;;;17.50;56.30;;;;;;5094289;28;20143;-70
2022/05/22 04:53:17;;;;;;;0.82;0.30;;;17.50;56.20;;;;;;5092861;28;20101;-70
2022/05/22 04:55:42;;;;;;;0.68;0.20;;;17.50;56.20;;;;;;5093786;28;20044;-70
2022/05/22 04:58:08;;;;;;;0.88;0.22;;;17.50;56.20;;;;;;5093076;28;20422;-70
2022/05/22 05:00:35;;;;;;;0.50;0.20;;;17.50;56.20;;;;;;5092740;28;20044;-70
2022/05/22 05:03:00;;;;;;;0.60;0.30;;;17.50;56.10;;;;;;5092542;28;20048;-70
2022/05/22 05:05:27;;;;;;;0.40;0.20;;;17.60;56.10;;;;;;5094693;28;20036;-70
2022/05/22 05:07:53;;;;;;;0.30;0.20;;;17.50;56.10;;;;;;5092874;28;20040;-72
2022/05/22 05:10:19;;;;;;;0.35;0.20;;;17.50;56.10;;;;;;5092696;28;20368;-70
2022/05/22 05:12:45;;;;;;;0.55;0.20;;;17.50;56.10;;;;;;5092688;28;20079;-70
2022/05/22 05:15:14;;;;;;;0.55;0.20;;;17.50;56.10;;;;;;5092910;28;20459;-70
2022/05/22 05:17:42;;;;;;;0.80;0.20;;;17.50;56.20;;;;;;5093800;28;20043;-72
2022/05/22 05:20:09;;;;;;;0.95;0.20;;;17.50;56.20;;;;;;5092467;28;20032;-72
2022/05/22 05:22:35;;;;;;;0.75;0.20;;;17.50;56.20;;;;;;5092240;28;20078;-70
2022/05/22 05:25:01;;;;;;;0.70;0.30;;;17.50;56.20;;;;;;5093700;28;20052;-70
2022/05/22 05:27:27;;;;;;;0.70;0.30;;;17.60;56.30;;;;;;5092555;28;20077;-70
2022/05/22 05:29:56;;;;;;;0.50;0.30;;;17.60;56.20;;;;;;5092276;28;20459;-72
2022/05/22 05:32:23;;;;;;;0.95;0.30;;;17.60;56.20;;;;;;5092080;28;20043;-72
2022/05/22 05:34:56;;;;;;;2.83;0.30;;;17.60;56.20;;;;;;5093651;28;20044;-72
2022/05/22 05:37:22;;;;;;;1.48;0.22;;;17.60;56.20;;;;;;5093568;28;20044;-70
2022/05/22 05:39:47;;;;;;;0.98;0.32;;;17.60;56.20;;;;;;5092385;28;20048;-70
2022/05/22 05:42:13;;;;;;;1.33;0.43;;;17.60;56.30;;;;;;5091790;28;20036;-72
2022/05/22 05:44:39;;;;;;;3.08;0.50;;;17.60;56.20;;;;;;5091831;28;20127;-72
2022/05/22 05:47:04;;;;;;;2.03;0.45;;;17.60;56.20;;;;;;5091920;28;20038;-70
2022/05/22 05:49:30;;;;;;;2.03;0.30;;;17.60;56.20;;;;;;5091948;28;20394;-72
2022/05/22 05:51:56;;;;;;;0.80;0.20;;;17.60;56.20;;;;;;5093071;28;20368;-70
2022/05/22 05:54:21;;;;;;;1.45;0.20;;;17.60;56.20;;;;;;5107148;28;20560;-70
2022/05/22 05:56:47;;;;;;;0.80;0.30;;;17.60;56.20;;;;;;5092950;28;20036;-72
2022/05/22 05:59:13;;;;;;;2.97;0.50;;;17.60;56.20;;;;;;5092139;28;20043;-70
2022/05/22 06:01:38;;;;;;;0.60;0.20;;;17.60;56.20;;;;;;5092645;28;20505;-71
2022/05/22 06:04:04;;;;;;;1.38;0.63;;;17.60;56.10;;;;;;5091697;28;20040;-70
2022/05/22 06:06:33;;;;;;;1.20;0.28;;;17.60;56.10;;;;;;5092018;28;20449;-70
2022/05/22 06:08:58;;;;;;;1.90;0.47;;;17.60;56.20;;;;;;5091090;28;20123;-71
2022/05/22 06:11:24;;;;;;;2.20;0.47;;;17.60;56.20;;;;;;5092614;28;20111;-71
2022/05/22 06:13:51;;;;;;;0.70;0.30;;;17.70;56.20;;;;;;5091384;28;20395;-71
2022/05/22 06:16:16;;;;;;;1.05;0.30;;;17.60;56.10;;;;;;5091484;28;20036;-71
2022/05/22 06:18:43;;;;;;;1.33;0.22;;;17.60;56.90;;;;;;5091381;28;20040;-72
2022/05/22 06:21:18;;;;;;;1.85;0.30;;;17.70;56.20;;;;;;5091316;28;20051;-72
2022/05/22 06:23:45;;;;;;;1.00;0.22;;;17.70;56.20;;;;;;5091058;28;20067;-70
2022/05/22 06:26:13;;;;;;;1.85;0.30;;;17.70;56.20;;;;;;5091659;28;20116;-71
2022/05/22 06:28:38;;;;;;;1.10;0.30;;;17.70;56.20;;;;;;5091198;28;20380;-71
2022/05/22 06:31:06;;;;;;;1.58;0.30;;;17.70;56.20;;;;;;5090268;28;20043;-71
2022/05/22 06:33:32;;;;;;;1.92;0.40;;;17.70;56.20;;;;;;5091224;28;20514;-73
2022/05/22 06:35:57;;;;;;;2.08;0.50;;;17.70;56.20;;;;;;5091291;28;20075;-71
2022/05/22 06:41:11;;;;;;;2.75;0.30;;;17.70;56.20;;;;;;5092021;28;20058;-70
2022/05/22 06:43:36;;;;;;;1.52;0.52;;;17.70;56.20;;;;;;5091994;28;20049;-71
2022/05/22 06:46:03;;;;;;;1.95;0.40;;;17.70;56.20;;;;;;5091707;28;20036;-71
2022/05/22 06:48:29;;;;;;;0.90;0.30;;;17.70;56.20;;;;;;5090878;28;20487;-71
2022/05/22 06:50:55;;;;;;;1.30;0.30;;;17.70;56.20;;;;;;5091954;28;20063;-73
2022/05/22 06:53:21;;;;;;;2.78;0.40;;;17.80;57.00;;;;;;5090664;28;20483;-71
2022/05/22 06:55:47;;;;;;;1.95;0.63;;;17.80;56.20;;;;;;5092063;28;20094;-72
2022/05/22 06:58:15;;;;;;;1.55;0.20;;;17.80;56.20;;;;;;5091755;28;20051;-72
2022/05/22 07:00:41;;;;;;;1.08;0.30;;;17.80;56.20;;;;;;5090722;28;20518;-73
2022/05/22 07:03:07;;;;;;;1.05;0.30;;;17.80;56.20;;;;;;5090454;28;20032;-71
2022/05/22 07:05:32;;;;;;;1.52;0.40;;;17.80;56.20;;;;;;5107821;28;20050;-71
2022/05/22 07:07:58;;;;;;;1.08;0.20;;;17.80;56.10;;;;;;5090517;28;20404;-71
2022/05/22 07:11:38;;;;;;;0.65;0.40;;;17.80;56.10;;;;;;5090554;28;20040;-71
2022/05/22 07:13:18;;;;;;;0.93;0.20;;;17.80;56.10;;;;;;5090345;28;20040;-73
2022/05/22 07:15:43;;;;;;;1.05;0.20;;;17.90;56.20;;;;;;5091199;28;20487;-72
2022/05/22 07:18:12;;;;;;;1.92;0.30;;;17.90;56.10;;;;;;5090348;28;20047;-70
2022/05/22 07:20:37;;;;;;;1.00;0.30;;;17.90;56.10;;;;;;5090763;28;20063;-71
2022/05/22 07:23:03;;;;;;;1.98;0.20;;;17.90;56.10;;;;;;5091070;28;20048;-70
2022/05/22 07:25:29;;;;;;;2.88;0.30;;;17.90;56.10;;;;;;5090649;28;20048;-72
2022/05/22 07:27:54;;;;;;;0.95;0.32;;;17.90;56.10;;;;;;5091419;28;20091;-70
2022/05/22 07:30:20;;;;;;;1.40;0.30;;;17.90;56.00;;;;;;5090011;28;20445;-71
2022/05/22 07:32:45;;;;;;;1.73;0.30;;;17.90;56.00;;;;;;5091356;28;20067;-71
2022/05/22 07:35:11;;;;;;;0.85;0.20;;;17.90;56.00;;;;;;5090644;28;20476;-72
2022/05/22 07:37:37;;;;;;;1.60;0.45;;;17.90;56.00;;;;;;5089971;28;20466;-73
2022/05/22 07:40:03;;;;;;;1.75;0.30;;;18.00;56.00;;;;;;5090472;28;20036;-67
2022/05/22 07:42:28;;;;;;;1.60;0.30;;;18.00;56.00;;;;;;5091170;28;20040;-71
2022/05/22 07:44:54;;;;;;;1.35;0.20;;;18.00;55.90;;;;;;5093556;28;20062;-71
2022/05/22 07:47:19;;;;;;;1.90;0.45;;;18.00;55.80;;;;;;5094527;28;20040;-71
2022/05/22 07:52:39;;;;;;;0.70;0.20;;;18.00;55.80;;;;;;5095078;28;20039;-71
2022/05/22 07:55:05;;;;;;;1.48;0.60;;;18.00;55.70;;;;;;5094094;28;20044;-71
2022/05/22 07:57:30;;;;;;;0.57;0.25;;;18.10;55.80;;;;;;5096075;28;20040;-71
2022/05/22 07:59:56;;;;;;;2.50;0.60;;;18.00;55.60;;;;;;5095362;28;20038;-72
2022/05/22 08:02:22;;;;;;;2.40;0.40;;;18.10;55.70;;;;;;5094047;28;20036;-71
2022/05/22 08:04:50;;;;;;;0.90;0.32;;;18.10;55.80;;;;;;5093847;28;20139;-71
2022/05/22 08:07:19;;;;;;;0.47;0.28;;;18.10;55.60;;;;;;5078424;28;20381;-73
2022/05/22 08:09:44;;;;;;;1.92;0.57;;;18.10;55.50;;;;;;5093691;28;20055;-71
2022/05/22 08:12:10;;;;;;;1.27;0.60;;;18.10;55.40;;;;;;5093629;28;20476;-71
2022/05/22 08:14:36;;;;;;;1.42;0.30;;;18.20;55.30;;;;;;5093821;28;20040;-71
2022/05/22 08:17:05;;;;;;;1.85;0.47;;;18.20;55.30;;;;;;5093940;28;20394;-71
2022/05/22 08:19:30;;;;;;;1.50;0.30;;;18.30;55.30;;;;;;5095004;28;20106;-73
2022/05/22 08:21:56;;;;;;;0.98;0.20;;;18.30;55.20;;;;;;5093442;28;20127;-71
2022/05/22 08:24:21;;;;;;;2.05;0.50;;;18.30;55.00;;;;;;5076455;28;20502;-71
2022/05/22 08:26:47;;;;;;;0.93;0.20;;;18.30;54.90;;;;;;5094965;28;20047;-72
2022/05/22 08:29:13;;;;;;;0.85;0.20;;;18.40;54.80;;;;;;5094513;28;20036;-71
2022/05/22 08:31:39;;;;;;;2.30;0.45;;;18.40;54.60;;;;;;5093631;28;20384;-74
2022/05/22 08:34:04;;;;;;;1.58;0.30;;;18.50;54.50;;;;;;5094668;28;20040;-72
2022/05/22 08:36:30;;;;;;;1.95;0.30;;;18.50;54.40;;;;;;5093545;28;20109;-73
2022/05/22 08:38:55;;;;;;;1.02;0.22;;;18.60;54.30;;;;;;5093205;28;20051;-72
2022/05/22 08:41:27;;;;;;;1.17;0.30;;;18.60;54.20;;;;;;5093081;28;20051;-72
2022/05/22 08:49:52;;;;;;;0.98;0.20;;;18.80;54.10;;;;;;5109118;27;20568;-73
2022/05/22 08:52:38;;;;;;;1.17;0.20;;;19.00;53.60;;;;;;5107938;28;20078;-73
2022/05/22 08:55:12;;;;;;;2.10;0.25;;;19.10;53.20;;;;;;5108219;28;20044;-73
2022/05/22 09:00:26;;;;;;;1.58;0.32;;;19.50;52.30;;;;;;5150896;27;20207;-73
2022/05/22 09:03:01;;;;;;;0.90;0.40;;;19.70;51.80;;;;;;5128519;28;20062;-72
2022/05/22 09:05:29;;;;;;;2.13;0.52;;;19.90;51.40;;;;;;5128556;28;20122;-73
2022/05/22 09:08:02;;;;;;;1.65;0.20;;;19.90;51.20;;;;;;5128969;28;20075;-74
2022/05/22 09:11:08;;;;;;;1.00;0.22;;;20.00;50.90;;;;;;5128531;28;20043;-73
2022/05/22 09:13:45;;;;;;;2.10;0.47;;;20.00;50.70;;;;;;5128403;28;20082;-73
2022/05/22 09:16:28;;;;;;;1.70;0.30;;;20.00;50.80;;;;;;5128624;28;20527;-73
2022/05/22 09:24:37;;;;;;;1.50;0.30;;;20.10;50.60;;;;;;5128571;27;20388;-73
2022/05/22 09:41:27;;;;;;;1.70;0.22;;;20.40;49.90;;;;;;5130230;27;20379;-73
2022/05/22 09:49:46;;;;;;;0.52;0.20;;;20.40;49.80;;;;;;5150688;27;20110;-73
2022/05/22 09:55:24;;;;;;;1.58;0.20;;;20.40;49.70;;;;;;5129791;27;20399;-73
2022/05/22 10:03:46;;;;;;;1.00;0.20;;;20.30;50.00;;;;;;5152362;27;1167030;-72
2022/05/22 10:12:10;;;;;;;1.50;0.47;;;20.20;50.20;;;;;;5171059;27;20400;-73
2022/05/22 10:17:44;;;;;;;2.65;0.28;;;20.20;50.30;;;;;;5154766;27;1163178;-74
2022/05/22 10:28:44;;;;;;;1.00;0.20;;;20.10;50.30;;;;;;5129988;27;20925;-73
2022/05/22 10:31:21;;;;;;;1.30;0.20;;;20.10;50.40;;;;;;5128839;28;20043;-74
2022/05/22 10:36:30;;;;;;;1.35;0.30;;;20.10;50.40;;;;;;5152615;27;1164470;-73
2022/05/22 10:39:06;;;;;;;0.93;0.20;;;20.10;50.50;;;;;;5152936;27;20035;-74
2022/05/22 10:44:28;;;;;;;1.13;0.20;;;20.00;50.60;;;;;;5152579;27;20042;-73
2022/05/22 10:46:57;;;;;;;;;;;20.00;50.70;;;;;;5153405;27;20053;-73
2022/05/22 10:49:25;;;;;;;1.52;0.30;;;19.90;50.70;;;;;;5152560;27;20014;-74
2022/05/22 10:51:57;;;;;;;1.30;0.30;;;19.90;50.80;;;;;;5171119;27;20034;-72
2022/05/22 10:54:29;;;;;;;0.90;0.20;;;19.90;50.80;;;;;;5152491;27;20095;-73
2022/05/22 10:57:06;;;;;;;2.05;0.20;;;19.90;50.80;;;;;;5152567;27;20049;-73
2022/05/22 10:59:32;;;;;;;3.75;0.30;;;19.90;50.90;;;;;;5152651;27;20389;-73
2022/05/22 11:02:00;;;;;;;2.70;0.35;;;19.90;51.00;;;;;;5152303;27;20041;-72
2022/05/22 11:04:43;;;;;;;1.20;0.30;;;19.90;51.00;;;;;;5152581;27;20095;-74
2022/05/22 11:07:10;;;;;;;2.78;0.45;;;19.90;51.00;;;;;;5152578;27;20049;-66
2022/05/22 11:09:51;;;;;;;1.00;0.20;;;19.90;51.00;;;;;;5170874;27;20490;-72
2022/05/22 11:12:21;;;;;;;1.63;0.30;;;19.80;51.00;;;;;;5170050;27;20026;-74
2022/05/22 11:14:47;;;;;;;1.23;0.20;;;19.80;51.10;;;;;;5151872;27;20043;-70
2022/05/22 11:17:19;;;;;;;1.25;0.20;;;19.80;51.20;;;;;;5152072;27;20470;-72
2022/05/22 11:19:53;;;;;;;0.82;0.30;;;19.80;51.40;;;;;;5170767;27;20431;-71
2022/05/22 11:22:58;;;;;;;1.65;0.20;;;19.80;51.40;;;;;;5152232;27;20087;-72
2022/05/22 11:25:51;;;;;;;2.15;0.20;;;19.80;51.40;;;;;;5169915;27;20069;-72
2022/05/22 12:04:31;;;;;;;1.20;0.13;;;20.00;51.00;;;;;;5130069;27;20438;-74
2022/05/22 12:10:16;;;;;;;1.08;0.20;;;20.00;51.70;;;;;;5129710;27;20394;-74
2022/05/22 12:13:01;;;;;;;1.20;0.35;;;20.10;51.80;;;;;;5128640;28;20462;-73
2022/05/22 12:21:00;;;;;;;1.55;0.20;;;20.00;51.00;;;;;;5130199;27;20439;-74
2022/05/22 12:23:32;;;;;;;1.95;0.40;;;20.00;51.00;;;;;;5146186;27;20039;-74
2022/05/22 12:26:00;;;;;;;1.77;0.30;;;20.10;51.10;;;;;;5130243;27;20456;-74
2022/05/22 12:28:52;;;;;;;0.50;0.10;;;20.00;51.90;;;;;;5129825;28;20051;-73
2022/05/22 12:31:30;;;;;;;2.00;0.30;;;20.00;51.20;;;;;;5128260;28;20552;-73
2022/05/22 12:34:02;;;;;;;1.05;0.20;;;20.00;51.30;;;;;;5129692;27;20371;-73
2022/05/22 12:36:30;;;;;;;0.40;0.20;;;20.00;51.40;;;;;;5128439;28;20048;-73
2022/05/22 12:39:03;;;;;;;1.00;0.20;;;20.00;51.30;;;;;;5128614;28;20043;-75
2022/05/22 12:41:53;;;;;;;0.55;0.20;;;20.00;51.30;;;;;;5129948;27;20148;-68
2022/05/22 12:44:19;;;;;;;1.58;0.20;;;20.00;51.20;;;;;;5129545;27;20107;-73
2022/05/22 12:46:46;;;;;;;0.95;0.10;;;20.00;51.40;;;;;;5129468;27;20043;-73
2022/05/22 12:49:32;;;;;;;0.73;0.10;;;20.00;51.40;;;;;;5128426;28;20085;-73
2022/05/22 12:54:37;;;;;;;1.17;0.30;;;20.00;51.40;;;;;;5152014;27;1175101;-72
2022/05/22 13:00:14;;;;;;;0.40;0.10;;;20.00;51.50;;;;;;5151719;27;1187374;-73
2022/05/22 13:02:45;;;;;;;1.23;0.17;;;20.10;51.40;;;;;;5152713;27;20045;-74
2022/05/22 13:05:14;;;;;;;;;;;20.10;51.40;;;;;;5153539;27;20034;-74
2022/05/22 13:07:40;;;;;;;0.82;0.20;;;20.10;51.40;;;;;;5152884;27;20422;-74
2022/05/22 13:10:22;;;;;;;0.73;0.13;;;20.10;51.40;;;;;;5153013;27;20046;-74
2022/05/22 13:12:55;;;;;;;0.57;0.20;;;20.20;51.40;;;;;;5171151;27;20388;-73
2022/05/22 13:15:27;;;;;;;2.05;0.20;;;20.20;51.30;;;;;;5152470;27;20065;-73
2022/05/22 13:18:15;;;;;;;1.70;0.20;;;20.20;51.30;;;;;;5152621;27;20039;-72
2022/05/22 13:26:05;;;;;;;1.05;0.77;;;20.20;51.30;;;;;;5129907;27;20769;-74
2022/05/22 13:28:46;;;;;;;0.82;0.10;;;20.20;51.20;;;;;;5129217;28;20043;-73
2022/05/22 13:34:34;;;;;;;1.52;0.15;;;20.20;51.30;;;;;;5129721;27;20759;-74
2022/05/22 13:37:04;;;;;;;0.80;0.30;;;20.20;51.30;;;;;;5128615;28;20039;-73
2022/05/22 13:39:41;;;;;;;1.35;0.20;;;20.20;51.40;;;;;;5128509;28;20126;-73
2022/05/22 13:42:47;;;;;;;0.52;0.10;;;20.20;51.40;;;;;;5129060;28;20050;-74
2022/05/22 13:45:50;;;;;;;2.65;0.22;;;20.20;51.40;;;;;;5129523;28;20126;-73
2022/05/22 13:57:15;;;;;;;0.88;0.20;;;20.20;51.40;;;;;;5109711;27;20405;-74
2022/05/22 13:59:49;;;;;;;1.33;0.20;;;20.30;51.30;;;;;;5108130;28;20796;-74
2022/05/22 14:02:19;;;;;;;1.15;0.35;;;20.30;51.30;;;;;;5108530;28;20036;-73
2022/05/22 14:04:46;;;;;;;;;;;20.30;51.20;;;;;;5108597;28;20044;-74
2022/05/22 14:07:35;;;;;;;0.90;0.22;;;20.30;51.20;;;;;;5108304;28;19961;-73
2022/05/22 14:10:01;;;;;;;1.58;0.20;;;20.30;51.30;;;;;;5107957;28;20051;-73
2022/05/22 14:12:31;;;;;;;1.10;0.20;;;20.30;51.20;;;;;;5107956;28;20040;-73
2022/05/22 14:14:57;;;;;;;1.27;0.20;;;20.30;51.10;;;;;;5107587;28;21912;-73
2022/05/22 14:17:33;;;;;;;0.90;0.20;;;20.40;51.20;;;;;;5107788;28;20075;-73
2022/05/22 14:20:08;;;;;;;1.67;0.40;;;20.30;51.20;;;;;;5107994;28;20043;-74
2022/05/22 14:22:34;;;;;;;0.82;0.20;;;20.40;51.20;;;;;;5107990;28;20281;-72
2022/05/22 14:25:00;;;;;;;0.75;0.40;;;20.40;51.20;;;;;;5107907;28;20297;-73
2022/05/22 14:27:47;;;;;;;0.93;0.20;;;20.40;51.20;;;;;;5107916;28;20028;-73
2022/05/22 14:33:00;;;;;;;2.00;0.63;;;20.40;51.20;;;;;;5088702;28;20386;-74
2022/05/22 14:40:59;;;;;;;1.25;0.22;;;20.40;51.40;;;;;;5129892;27;20686;-73
2022/05/22 14:43:32;;;;;;;0.80;0.20;;;20.40;51.30;;;;;;5130322;28;20126;-72
2022/05/22 14:46:00;;;;;;;0.57;0.20;;;20.40;51.30;;;;;;5128666;28;20043;-73
2022/05/22 14:48:30;;;;;;;1.48;0.20;;;20.40;51.30;;;;;;5129238;28;20380;-67
2022/05/22 14:51:02;;;;;;;1.15;0.20;;;20.30;51.20;;;;;;5128288;27;20501;-74
2022/05/22 14:53:32;;;;;;;1.35;0.40;;;20.40;51.30;;;;;;5128386;28;20035;-72
2022/05/22 14:56:05;;;;;;;2.13;0.40;;;20.30;51.20;;;;;;5129589;27;20041;-72
2022/05/22 14:58:35;;;;;;;2.72;0.20;;;20.40;51.30;;;;;;5129758;27;20122;-72
2022/05/22 15:01:10;;;;;;;1.05;0.20;;;20.40;51.30;;;;;;5129695;27;20039;-70
2022/05/22 15:03:48;;;;;;;0.77;0.10;;;20.40;51.30;;;;;;5128283;28;20054;-72
2022/05/22 15:06:22;;;;;;;1.25;0.30;;;20.40;51.20;;;;;;5128373;27;20088;-73
2022/05/22 15:08:54;;;;;;;1.33;0.20;;;20.40;51.20;;;;;;5129753;27;20066;-73
2022/05/22 15:11:28;;;;;;;0.60;0.15;;;20.40;51.20;;;;;;5128927;27;20044;-73
2022/05/22 15:14:00;;;;;;;0.98;0.20;;;20.40;51.20;;;;;;5127525;27;20035;-71
2022/05/22 15:16:36;;;;;;;1.27;0.25;;;20.40;51.20;;;;;;5129454;28;20309;-72
2022/05/22 15:27:30;;;;;;;2.05;0.20;;;20.40;51.10;;;;;;5128432;28;20074;-68
2022/05/22 15:29:56;;;;;;;2.25;0.47;;;20.40;51.20;;;;;;5129996;27;20035;-73
2022/05/22 15:32:21;;;;;;;3.15;0.25;;;20.40;51.10;;;;;;5128370;28;20418;-73
2022/05/22 15:34:58;;;;;;;0.85;0.20;;;20.40;51.10;;;;;;5128245;28;20043;-74
2022/05/22 15:37:24;;;;;;;1.23;0.20;;;20.40;51.10;;;;;;5128491;28;20092;-72